Terminal Aerodrome Forecast
Issued by NWS Blacksburg, VA

Current Version | Previous Version | Text Only | Print | Product List | Glossary Off
Versions: 1 2 3 4 5 6 7 8 9 10 11 12 13 14 15 16 17 18 19 20 21 22 23 24 25 26 27 28

000
FTUS41 KRNK 172207 AAB
TAFBLF
TAF AMD
KBLF 172207Z 1722/1818 28010G18KT 3SM -SHSN OVC006
      TEMPO 1722/1724 1SM -SHSN OVC003
     FM180000 29015G25KT 3SM -SHSN OVC008
     FM180900 30015G25KT 6SM -SHSN OVC012=

USA.gov is the U.S. government's official web portal to all federal, state and local government web resources and services.